CYRQ

Details ICAO CYRQ (YRQ)
Name TROIS RIVIERES
Region Canada
Timezone America/Montreal (UTC-4.0)
Plans Departing 50
Arriving 26
Stats Elevation 199 ft / 61 m (AMSL)
Location 46.352741° -72.679441°
Runways 1
Magnetic Variation 15.086° W
Sunrise 2018-05-22 09:11:22 UTC / 2018-05-22 05:11:22 Local
Sunset 2018-05-23 00:26:17 UTC / 2018-05-22 20:26:17 Local
Advertisement - Login to hide

Runways

ID Width Length Bearing (true) Bearing (mag) Surface Threshold Offset Overrun Length
05 150 ft / 46 m 6,001 ft / 1,829 m 31.33° 46.42° Asphalt 0 ft / 0 m 300 ft / 91 m
23 150 ft / 46 m 6,001 ft / 1,829 m 211.34° 226.43° Asphalt 0 ft / 0 m 300 ft / 91 m

Map

Weather


0- 5 10 15 20 25 30 35+ Temperature / ° C

Clouds and Precipitation
Forecast for 2018-05-22 06:00 UTC. Updated 3 hours ago

Ground ~20,000 ft ~40,000 ft Winds

METAR

CYRQ 220800Z AUTO 00000KT 9SM CLR 06/04 A3009 RMK SLP192

TAF

TAF CYRQ 220738Z 2208/2220 VRB03KT P6SM FEW100 SCT240 BECMG 2212/2214 21010KT SCT180 BKN240 FM221800 21012G22KT P6SM OVC120 RMK FCST BASED ON AUTO OBS. NXT FCST BY 221400Z

Frequencies

Unicom 123.00 MHz MF/UNICOM
Warning: Do not use this data for real-world aviation or navigation. No guarantee of current accuracy is given.